QTR46M OTHH-GMMN
Flight info
| Callsign | QTR46M |
|---|---|
| Flight time | N/A |
| Altitude | 28000 |
| Route | DATRI L564 BAT/N0525F290 L564 MIGMA/N0517F280 M550 MEVDO Y511 ITRUX/N0493F380 Y511 PMA Z712 WEJ/N0485F400 L677 CVO L617 NABSI M872 METRU DCT ARLOS DCT EMLAR DCT DEXOL DCT OMENI UL874 DIMAO UZ888 ORSUP UA411 FES UR975 SADIC |
| Aircraft | A359/H-SDE2E3GHIJ1J3J4J5LM1ORWXY/LB1D1 |
Departure
| Time | 2026-05-08 07:34 |
|---|---|
| Airport | Hamad International Airport (OTHH) |
Arrival
| Time | N/A |
|---|---|
| Airport | Mohammed V International Airport (GMMN) |
| Time | Latitude | Longitude | Altitude | Speed | Heading |
|---|---|---|---|---|---|
| 2026-05-08 07:11 | 25.26342 | 51.61664 | 36 ft | 0 kts | 159° |
| 2026-05-08 07:26 | 25.26348 | 51.61662 | 36 ft | 4 kts | 159° |
| 2026-05-08 07:26 | 25.26374 | 51.61651 | 36 ft | 4 kts | 159° |
| 2026-05-08 07:26 | 25.26398 | 51.61640 | 36 ft | 2 kts | 158° |
| 2026-05-08 07:26 | 25.26410 | 51.61635 | 36 ft | 4 kts | 153° |
| 2026-05-08 07:27 | 25.26429 | 51.61619 | 36 ft | 4 kts | 101° |
| 2026-05-08 07:27 | 25.26425 | 51.61595 | 35 ft | 4 kts | 68° |
| 2026-05-08 07:27 | 25.26417 | 51.61573 | 36 ft | 4 kts | 68° |
| 2026-05-08 07:29 | 25.26417 | 51.61574 | 36 ft | 1 kts | 68° |
| 2026-05-08 07:29 | 25.26432 | 51.61616 | 36 ft | 8 kts | 68° |
| 2026-05-08 07:30 | 25.26456 | 51.61679 | 36 ft | 10 kts | 68° |
| 2026-05-08 07:30 | 25.26483 | 51.61753 | 36 ft | 11 kts | 68° |
| 2026-05-08 07:30 | 25.26513 | 51.61835 | 36 ft | 12 kts | 68° |
| 2026-05-08 07:30 | 25.26521 | 51.61925 | 35 ft | 12 kts | 120° |
| 2026-05-08 07:31 | 25.26447 | 51.61971 | 36 ft | 13 kts | 158° |
| 2026-05-08 07:31 | 25.26361 | 51.62010 | 36 ft | 14 kts | 158° |
| 2026-05-08 07:31 | 25.26269 | 51.62050 | 36 ft | 15 kts | 158° |
| 2026-05-08 07:31 | 25.26169 | 51.62095 | 36 ft | 16 kts | 158° |
| 2026-05-08 07:32 | 25.26061 | 51.62143 | 35 ft | 17 kts | 158° |
| 2026-05-08 07:32 | 25.25972 | 51.62195 | 36 ft | 12 kts | 121° |
| 2026-05-08 07:32 | 25.25985 | 51.62282 | 36 ft | 12 kts | 69° |
| 2026-05-08 07:32 | 25.26017 | 51.62378 | 34 ft | 14 kts | 69° |
| 2026-05-08 07:33 | 25.26060 | 51.62448 | 32 ft | 8 kts | 9° |
| 2026-05-08 07:33 | 25.26089 | 51.62438 | 33 ft | 0 kts | 339° |
| 2026-05-08 07:33 | 25.26248 | 51.62370 | 34 ft | 56 kts | 337° |
| 2026-05-08 07:34 | 25.26805 | 51.62124 | 30 ft | 115 kts | 338° |
| 2026-05-08 07:34 | 25.27709 | 51.61724 | 33 ft | 163 kts | 339° |
| 2026-05-08 07:34 | 25.28834 | 51.61218 | 404 ft | 177 kts | 339° |
| 2026-05-08 07:34 | 25.29951 | 51.60733 | 1300 ft | 171 kts | 341° |
| 2026-05-08 07:35 | 25.31074 | 51.60292 | 1875 ft | 173 kts | 342° |
| 2026-05-08 07:35 | 25.32263 | 51.59774 | 1996 ft | 195 kts | 334° |
| 2026-05-08 07:35 | 25.33598 | 51.59224 | 2157 ft | 216 kts | 344° |
| 2026-05-08 07:35 | 25.35152 | 51.59451 | 2371 ft | 238 kts | 18° |
| 2026-05-08 07:36 | 25.36755 | 51.60120 | 2678 ft | 252 kts | 18° |
| 2026-05-08 07:36 | 25.38433 | 51.60746 | 3239 ft | 255 kts | 15° |
| 2026-05-08 07:36 | 25.40153 | 51.61315 | 3774 ft | 262 kts | 14° |
| 2026-05-08 07:36 | 25.41977 | 51.61492 | 4289 ft | 267 kts | 350° |
| 2026-05-08 07:37 | 25.43663 | 51.60737 | 4874 ft | 268 kts | 324° |
| 2026-05-08 07:37 | 25.44899 | 51.59183 | 5399 ft | 273 kts | 300° |
| 2026-05-08 07:37 | 25.45723 | 51.57269 | 5971 ft | 278 kts | 293° |
| 2026-05-08 07:37 | 25.46464 | 51.55273 | 6534 ft | 281 kts | 292° |
| 2026-05-08 07:38 | 25.47198 | 51.53265 | 7091 ft | 283 kts | 292° |
| 2026-05-08 07:38 | 25.47942 | 51.51239 | 7614 ft | 286 kts | 292° |
| 2026-05-08 07:38 | 25.48649 | 51.49166 | 8116 ft | 289 kts | 285° |
| 2026-05-08 07:38 | 25.48801 | 51.46954 | 8651 ft | 290 kts | 266° |
| 2026-05-08 07:39 | 25.48590 | 51.44747 | 9165 ft | 293 kts | 263° |
| 2026-05-08 07:39 | 25.48321 | 51.42498 | 9665 ft | 296 kts | 262° |
| 2026-05-08 07:39 | 25.48050 | 51.40231 | 10192 ft | 300 kts | 262° |
| 2026-05-08 07:39 | 25.47778 | 51.37889 | 10477 ft | 312 kts | 262° |
| 2026-05-08 07:40 | 25.47504 | 51.35446 | 10746 ft | 326 kts | 262° |
| 2026-05-08 07:40 | 25.47231 | 51.32901 | 11000 ft | 340 kts | 262° |
| 2026-05-08 07:40 | 25.46796 | 51.30288 | 11226 ft | 352 kts | 252° |
| 2026-05-08 07:40 | 25.45748 | 51.27804 | 11446 ft | 362 kts | 234° |
| 2026-05-08 07:41 | 25.43940 | 51.25837 | 11668 ft | 371 kts | 212° |
| 2026-05-08 07:41 | 25.41540 | 51.24773 | 12017 ft | 376 kts | 189° |
| 2026-05-08 07:41 | 25.38923 | 51.24708 | 12509 ft | 377 kts | 175° |
| 2026-05-08 07:41 | 25.36299 | 51.24957 | 12995 ft | 380 kts | 175° |
| 2026-05-08 07:42 | 25.33657 | 51.25160 | 13513 ft | 382 kts | 176° |
| 2026-05-08 07:42 | 25.30994 | 51.25305 | 14008 ft | 384 kts | 178° |
| 2026-05-08 07:42 | 25.28315 | 51.25445 | 14475 ft | 386 kts | 175° |
| 2026-05-08 07:42 | 25.25715 | 51.26033 | 14963 ft | 388 kts | 162° |
| 2026-05-08 07:43 | 25.23170 | 51.27057 | 15452 ft | 390 kts | 159° |
| 2026-05-08 07:43 | 25.20630 | 51.28151 | 15905 ft | 392 kts | 159° |
| 2026-05-08 07:43 | 25.18075 | 51.29248 | 16384 ft | 395 kts | 159° |
| 2026-05-08 07:43 | 25.15507 | 51.30343 | 16824 ft | 397 kts | 159° |
| 2026-05-08 07:44 | 25.12924 | 51.31437 | 17271 ft | 399 kts | 160° |
| 2026-05-08 07:44 | 25.10327 | 51.32533 | 17719 ft | 401 kts | 160° |
| 2026-05-08 07:44 | 25.07713 | 51.33636 | 18157 ft | 403 kts | 160° |
| 2026-05-08 07:44 | 25.05093 | 51.34744 | 18571 ft | 405 kts | 160° |
| 2026-05-08 07:45 | 25.02451 | 51.35857 | 18959 ft | 408 kts | 160° |
| 2026-05-08 07:45 | 24.99786 | 51.36976 | 19317 ft | 412 kts | 160° |
| 2026-05-08 07:45 | 24.97097 | 51.38105 | 19690 ft | 415 kts | 160° |
| 2026-05-08 07:45 | 24.94392 | 51.39250 | 20075 ft | 418 kts | 159° |
| 2026-05-08 07:46 | 24.91795 | 51.40720 | 20439 ft | 422 kts | 148° |
| 2026-05-08 07:46 | 24.89362 | 51.42557 | 20811 ft | 426 kts | 146° |
| 2026-05-08 07:46 | 24.86943 | 51.44461 | 21141 ft | 429 kts | 146° |
| 2026-05-08 07:46 | 24.84506 | 51.46379 | 21492 ft | 432 kts | 146° |
| 2026-05-08 07:47 | 24.82042 | 51.48312 | 21829 ft | 435 kts | 146° |
| 2026-05-08 07:47 | 24.79566 | 51.50249 | 22165 ft | 439 kts | 146° |
| 2026-05-08 07:47 | 24.77064 | 51.52196 | 22497 ft | 441 kts | 147° |
| 2026-05-08 07:47 | 24.74425 | 51.53930 | 22797 ft | 442 kts | 156° |
| 2026-05-08 07:48 | 24.71588 | 51.55100 | 23115 ft | 442 kts | 167° |
| 2026-05-08 07:48 | 24.68520 | 51.55647 | 23417 ft | 442 kts | 178° |
| 2026-05-08 07:48 | 24.65489 | 51.55522 | 23716 ft | 443 kts | 188° |
| 2026-05-08 07:48 | 24.62436 | 51.54988 | 24017 ft | 445 kts | 192° |
| 2026-05-08 07:49 | 24.59387 | 51.54298 | 24313 ft | 447 kts | 193° |
| 2026-05-08 07:49 | 24.56337 | 51.53536 | 24656 ft | 449 kts | 194° |
| 2026-05-08 07:49 | 24.53287 | 51.52757 | 25030 ft | 451 kts | 194° |
| 2026-05-08 07:49 | 24.50217 | 51.51984 | 25343 ft | 453 kts | 194° |
| 2026-05-08 07:50 | 24.47128 | 51.51224 | 25719 ft | 455 kts | 193° |
| 2026-05-08 07:50 | 24.44030 | 51.50477 | 26104 ft | 458 kts | 193° |
| 2026-05-08 07:50 | 24.40943 | 51.49743 | 26486 ft | 460 kts | 193° |
| 2026-05-08 07:50 | 24.37803 | 51.49003 | 26859 ft | 462 kts | 193° |
| 2026-05-08 07:51 | 24.34648 | 51.48263 | 27249 ft | 464 kts | 193° |
| 2026-05-08 07:51 | 24.31478 | 51.47520 | 27599 ft | 467 kts | 193° |
| 2026-05-08 07:51 | 24.28286 | 51.46772 | 27837 ft | 470 kts | 193° |
| 2026-05-08 07:51 | 24.25059 | 51.46014 | 27873 ft | 479 kts | 193° |
| 2026-05-08 07:52 | 24.21740 | 51.45420 | 27869 ft | 485 kts | 187° |
| 2026-05-08 07:52 | 24.18353 | 51.45232 | 27875 ft | 486 kts | 183° |
| 2026-05-08 07:52 | 24.14970 | 51.45169 | 27878 ft | 486 kts | 182° |
| 2026-05-08 07:52 | 24.11581 | 51.45166 | 27879 ft | 486 kts | 181° |
| 2026-05-08 07:53 | 24.08205 | 51.45190 | 27876 ft | 486 kts | 181° |
| 2026-05-08 07:53 | 24.04818 | 51.45221 | 27869 ft | 486 kts | 181° |
| 2026-05-08 07:53 | 24.01435 | 51.45250 | 27869 ft | 486 kts | 181° |
| 2026-05-08 07:53 | 23.98044 | 51.45272 | 27869 ft | 487 kts | 181° |
| 2026-05-08 07:54 | 23.94656 | 51.45288 | 27869 ft | 487 kts | 181° |
| 2026-05-08 07:54 | 23.91305 | 51.45303 | 27869 ft | 487 kts | 181° |
| 2026-05-08 07:54 | 23.87907 | 51.45314 | 27868 ft | 487 kts | 181° |
| 2026-05-08 07:54 | 23.84512 | 51.45325 | 27868 ft | 487 kts | 181° |
| 2026-05-08 07:55 | 23.81122 | 51.45334 | 27869 ft | 487 kts | 181° |
| 2026-05-08 07:55 | 23.77722 | 51.45345 | 27869 ft | 488 kts | 181° |
| 2026-05-08 07:55 | 23.74331 | 51.45355 | 27875 ft | 488 kts | 181° |
| 2026-05-08 07:55 | 23.70913 | 51.45367 | 27964 ft | 493 kts | 181° |
| 2026-05-08 07:56 | 23.67461 | 51.45377 | 28118 ft | 499 kts | 181° |
| 2026-05-08 07:56 | 23.63982 | 51.45389 | 28408 ft | 500 kts | 181° |
| 2026-05-08 07:56 | 23.60494 | 51.45400 | 28803 ft | 500 kts | 181° |
| 2026-05-08 07:56 | 23.57015 | 51.45412 | 29186 ft | 499 kts | 181° |
| 2026-05-08 07:57 | 23.53540 | 51.45425 | 29582 ft | 498 kts | 181° |
| 2026-05-08 07:57 | 23.50124 | 51.45437 | 30017 ft | 497 kts | 181° |
| 2026-05-08 07:57 | 23.46673 | 51.45452 | 30419 ft | 495 kts | 181° |
| 2026-05-08 07:57 | 23.43225 | 51.45491 | 30842 ft | 493 kts | 181° |
| 2026-05-08 07:58 | 23.39797 | 51.45545 | 31254 ft | 491 kts | 181° |
| 2026-05-08 07:58 | 23.36382 | 51.45605 | 31664 ft | 489 kts | 180° |
| 2026-05-08 07:58 | 23.32966 | 51.45666 | 31860 ft | 489 kts | 181° |
| 2026-05-08 07:59 | 23.26157 | 51.45781 | 31869 ft | 488 kts | 181° |
| 2026-05-08 07:59 | 23.19402 | 51.45889 | 31879 ft | 489 kts | 181° |
| 2026-05-08 08:00 | 23.12603 | 51.45982 | 31880 ft | 488 kts | 181° |
| 2026-05-08 08:00 | 23.05794 | 51.46068 | 31879 ft | 488 kts | 181° |
| 2026-05-08 08:01 | 22.98995 | 51.46159 | 31878 ft | 488 kts | 181° |
| 2026-05-08 08:01 | 22.92234 | 51.45687 | 31880 ft | 486 kts | 192° |
| 2026-05-08 08:02 | 22.85929 | 51.43167 | 31880 ft | 483 kts | 210° |
| 2026-05-08 08:02 | 22.80777 | 51.38607 | 31879 ft | 484 kts | 229° |
| 2026-05-08 08:03 | 22.77256 | 51.32390 | 31877 ft | 487 kts | 247° |
| 2026-05-08 08:03 | 22.75811 | 51.25212 | 31893 ft | 492 kts | 265° |
| 2026-05-08 08:04 | 22.76618 | 51.17821 | 31900 ft | 498 kts | 282° |
| 2026-05-08 08:04 | 22.77462 | 51.10460 | 31896 ft | 494 kts | 266° |
| 2026-05-08 08:05 | 22.76695 | 51.03104 | 31896 ft | 491 kts | 258° |
| 2026-05-08 08:05 | 22.75415 | 50.95851 | 31896 ft | 490 kts | 256° |
| 2026-05-08 08:06 | 22.74044 | 50.88620 | 31896 ft | 490 kts | 257° |
| 2026-05-08 08:06 | 22.72702 | 50.81370 | 31898 ft | 490 kts | 257° |
| 2026-05-08 08:07 | 22.71383 | 50.74125 | 31896 ft | 489 kts | 257° |
| 2026-05-08 08:07 | 22.70069 | 50.66884 | 31897 ft | 490 kts | 257° |
| 2026-05-08 08:08 | 22.68762 | 50.59693 | 31896 ft | 490 kts | 257° |
| 2026-05-08 08:08 | 22.67442 | 50.52452 | 31898 ft | 490 kts | 257° |
| 2026-05-08 08:09 | 22.66115 | 50.45209 | 31896 ft | 490 kts | 257° |
| 2026-05-08 08:09 | 22.64782 | 50.37958 | 31897 ft | 490 kts | 257° |
| 2026-05-08 08:10 | 22.63449 | 50.30712 | 31897 ft | 490 kts | 257° |
| 2026-05-08 08:10 | 22.62120 | 50.23508 | 31897 ft | 491 kts | 257° |
| 2026-05-08 08:11 | 22.60780 | 50.16266 | 31896 ft | 491 kts | 257° |
| 2026-05-08 08:11 | 22.59434 | 50.09013 | 31896 ft | 491 kts | 257° |
| 2026-05-08 08:12 | 22.58096 | 50.01818 | 31904 ft | 491 kts | 256° |
| 2026-05-08 08:12 | 22.57411 | 49.98147 | 32016 ft | 493 kts | 256° |
| 2026-05-08 08:12 | 22.56733 | 49.94515 | 32384 ft | 490 kts | 256° |
| 2026-05-08 08:12 | 22.56060 | 49.90916 | 32828 ft | 487 kts | 256° |
| 2026-05-08 08:13 | 22.55391 | 49.87338 | 33223 ft | 484 kts | 256° |
| 2026-05-08 08:13 | 22.54722 | 49.83771 | 33592 ft | 482 kts | 256° |
| 2026-05-08 08:13 | 22.54090 | 49.80248 | 33893 ft | 482 kts | 258° |
| 2026-05-08 08:14 | 22.53886 | 49.72992 | 33954 ft | 485 kts | 271° |
| 2026-05-08 08:14 | 22.54375 | 49.66936 | 33956 ft | 486 kts | 272° |
| 2026-05-08 08:15 | 22.55100 | 49.59663 | 33965 ft | 487 kts | 273° |
| 2026-05-08 08:15 | 22.55825 | 49.52375 | 33962 ft | 486 kts | 272° |
| 2026-05-08 08:16 | 22.56523 | 49.45090 | 33964 ft | 486 kts | 272° |
| 2026-05-08 08:16 | 22.57205 | 49.37812 | 33973 ft | 487 kts | 272° |
| 2026-05-08 08:17 | 22.57880 | 49.30536 | 33973 ft | 486 kts | 272° |
| 2026-05-08 08:17 | 22.58555 | 49.23267 | 33974 ft | 485 kts | 272° |
| 2026-05-08 08:18 | 22.59222 | 49.16046 | 33967 ft | 485 kts | 272° |
| 2026-05-08 08:18 | 22.59891 | 49.08777 | 33979 ft | 485 kts | 272° |
| 2026-05-08 08:19 | 22.60556 | 49.01517 | 33982 ft | 484 kts | 272° |
| 2026-05-08 08:19 | 22.61217 | 48.94265 | 33980 ft | 484 kts | 272° |
| 2026-05-08 08:20 | 22.61874 | 48.87018 | 33980 ft | 484 kts | 272° |
| 2026-05-08 08:20 | 22.62531 | 48.79750 | 33981 ft | 484 kts | 272° |
| 2026-05-08 08:21 | 22.63182 | 48.72491 | 33979 ft | 484 kts | 272° |
| 2026-05-08 08:21 | 22.63827 | 48.65230 | 33981 ft | 484 kts | 272° |
| 2026-05-08 08:22 | 22.64464 | 48.58023 | 33985 ft | 485 kts | 272° |
| 2026-05-08 08:22 | 22.65108 | 48.50739 | 33990 ft | 485 kts | 272° |
| 2026-05-08 08:23 | 22.65748 | 48.43473 | 33990 ft | 485 kts | 272° |
| 2026-05-08 08:23 | 22.66384 | 48.36197 | 33988 ft | 485 kts | 272° |
| 2026-05-08 08:24 | 22.67011 | 48.28974 | 33989 ft | 485 kts | 272° |
| 2026-05-08 08:24 | 22.67640 | 48.21706 | 33991 ft | 485 kts | 272° |
| 2026-05-08 08:25 | 22.68267 | 48.14435 | 33989 ft | 484 kts | 272° |
| 2026-05-08 08:25 | 22.68889 | 48.07156 | 33990 ft | 485 kts | 272° |
| 2026-05-08 08:26 | 22.69507 | 47.99891 | 33989 ft | 484 kts | 271° |
| 2026-05-08 08:26 | 22.70115 | 47.92667 | 33991 ft | 484 kts | 271° |
| 2026-05-08 08:27 | 22.70718 | 47.85431 | 33999 ft | 482 kts | 271° |
| 2026-05-08 08:27 | 22.71317 | 47.78188 | 33999 ft | 483 kts | 271° |
| 2026-05-08 08:28 | 22.71917 | 47.70955 | 33998 ft | 482 kts | 271° |
| 2026-05-08 08:28 | 22.72515 | 47.63706 | 34000 ft | 482 kts | 271° |
| 2026-05-08 08:29 | 22.73108 | 47.56473 | 33999 ft | 482 kts | 271° |
| 2026-05-08 08:29 | 22.73698 | 47.49250 | 34025 ft | 482 kts | 271° |
| 2026-05-08 08:30 | 22.74282 | 47.42018 | 34027 ft | 481 kts | 271° |
| 2026-05-08 08:30 | 22.75152 | 47.31193 | 34024 ft | 480 kts | 271° |
| 2026-05-08 08:31 | 22.75727 | 47.23984 | 34030 ft | 480 kts | 271° |
| 2026-05-08 08:31 | 22.76295 | 47.16831 | 34050 ft | 479 kts | 270° |
| 2026-05-08 08:32 | 22.76579 | 47.13222 | 34226 ft | 480 kts | 270° |
| 2026-05-08 08:32 | 22.76864 | 47.09624 | 34553 ft | 478 kts | 270° |
| 2026-05-08 08:32 | 22.77148 | 47.06049 | 34862 ft | 476 kts | 270° |
| 2026-05-08 08:32 | 22.77433 | 47.02465 | 35131 ft | 476 kts | 270° |
| 2026-05-08 08:33 | 22.77716 | 46.98890 | 35417 ft | 475 kts | 270° |
| 2026-05-08 08:33 | 22.77997 | 46.95337 | 35673 ft | 474 kts | 270° |
| 2026-05-08 08:33 | 22.78275 | 46.91770 | 35919 ft | 473 kts | 270° |
| 2026-05-08 08:33 | 22.78552 | 46.88208 | 36018 ft | 474 kts | 270° |
| 2026-05-08 08:34 | 22.79105 | 46.81099 | 36026 ft | 473 kts | 270° |
| 2026-05-08 08:34 | 22.79656 | 46.73988 | 36028 ft | 473 kts | 270° |
| 2026-05-08 08:35 | 22.80202 | 46.66872 | 36021 ft | 473 kts | 270° |
| 2026-05-08 08:35 | 22.80744 | 46.59810 | 36017 ft | 473 kts | 270° |
| 2026-05-08 08:36 | 22.81284 | 46.52710 | 36018 ft | 473 kts | 269° |
| 2026-05-08 08:36 | 22.81823 | 46.45597 | 36018 ft | 472 kts | 269° |
| 2026-05-08 08:37 | 22.82358 | 46.38503 | 36018 ft | 473 kts | 269° |
| 2026-05-08 08:37 | 22.82888 | 46.31396 | 36017 ft | 472 kts | 269° |
| 2026-05-08 08:38 | 22.83410 | 46.24278 | 36027 ft | 473 kts | 269° |
| 2026-05-08 08:38 | 22.83927 | 46.17178 | 36027 ft | 473 kts | 269° |
| 2026-05-08 08:39 | 22.84448 | 46.10070 | 36026 ft | 473 kts | 269° |
| 2026-05-08 08:39 | 22.84963 | 46.03006 | 36026 ft | 472 kts | 269° |
| 2026-05-08 08:40 | 22.85472 | 45.95916 | 36027 ft | 471 kts | 269° |
| 2026-05-08 08:40 | 22.85978 | 45.88838 | 36027 ft | 470 kts | 269° |
| 2026-05-08 08:41 | 22.86482 | 45.81780 | 36027 ft | 469 kts | 269° |
| 2026-05-08 08:41 | 22.86982 | 45.74720 | 36027 ft | 469 kts | 269° |
| 2026-05-08 08:42 | 22.87473 | 45.67718 | 36027 ft | 468 kts | 269° |
| 2026-05-08 08:42 | 22.87964 | 45.60669 | 36026 ft | 468 kts | 269° |
| 2026-05-08 08:43 | 22.88452 | 45.53624 | 36044 ft | 468 kts | 269° |
| 2026-05-08 08:43 | 22.88938 | 45.46587 | 36047 ft | 467 kts | 269° |
| 2026-05-08 08:44 | 22.89420 | 45.39549 | 36052 ft | 467 kts | 269° |
| 2026-05-08 08:44 | 22.89900 | 45.32523 | 36060 ft | 466 kts | 268° |
| 2026-05-08 08:45 | 22.90374 | 45.25509 | 36060 ft | 466 kts | 268° |
| 2026-05-08 08:45 | 22.90841 | 45.18538 | 36049 ft | 466 kts | 268° |
| 2026-05-08 08:46 | 22.91308 | 45.11526 | 36067 ft | 466 kts | 268° |
| 2026-05-08 08:46 | 22.91777 | 45.04514 | 36068 ft | 465 kts | 268° |
| 2026-05-08 08:47 | 22.92238 | 44.97509 | 36070 ft | 465 kts | 268° |
| 2026-05-08 08:47 | 22.92691 | 44.90515 | 36060 ft | 464 kts | 268° |
| 2026-05-08 08:48 | 22.93143 | 44.83519 | 36064 ft | 464 kts | 268° |
| 2026-05-08 08:48 | 22.93588 | 44.76575 | 36059 ft | 464 kts | 268° |
| 2026-05-08 08:49 | 22.94067 | 44.69594 | 36063 ft | 465 kts | 271° |
| 2026-05-08 08:49 | 22.95558 | 44.62664 | 36067 ft | 475 kts | 281° |
| 2026-05-08 08:50 | 22.97593 | 44.55872 | 36066 ft | 477 kts | 282° |
| 2026-05-08 08:50 | 22.99729 | 44.49065 | 36074 ft | 476 kts | 282° |
| 2026-05-08 08:51 | 23.01848 | 44.42256 | 36074 ft | 475 kts | 282° |
| 2026-05-08 08:51 | 23.03945 | 44.35461 | 36070 ft | 475 kts | 282° |
| 2026-05-08 08:52 | 23.06035 | 44.28659 | 36072 ft | 474 kts | 281° |
| 2026-05-08 08:52 | 23.08122 | 44.21844 | 36072 ft | 474 kts | 281° |
| 2026-05-08 08:53 | 23.10189 | 44.15091 | 36074 ft | 474 kts | 281° |
| 2026-05-08 08:53 | 23.12268 | 44.08296 | 36068 ft | 474 kts | 281° |
| 2026-05-08 08:54 | 23.14342 | 44.01494 | 36071 ft | 473 kts | 281° |
| 2026-05-08 08:54 | 23.16409 | 43.94697 | 36071 ft | 472 kts | 281° |
| 2026-05-08 08:55 | 23.18463 | 43.87923 | 36071 ft | 472 kts | 281° |
| 2026-05-08 08:55 | 23.20516 | 43.81153 | 36072 ft | 471 kts | 281° |
| 2026-05-08 08:56 | 23.22568 | 43.74383 | 36079 ft | 471 kts | 281° |
| 2026-05-08 08:56 | 23.24598 | 43.67670 | 36070 ft | 470 kts | 281° |
| 2026-05-08 08:57 | 23.26637 | 43.60912 | 36071 ft | 470 kts | 281° |
| 2026-05-08 08:57 | 23.28679 | 43.54143 | 36071 ft | 470 kts | 281° |
| 2026-05-08 08:58 | 23.30712 | 43.47385 | 36075 ft | 470 kts | 281° |
| 2026-05-08 08:58 | 23.32741 | 43.40631 | 36076 ft | 469 kts | 280° |
| 2026-05-08 08:59 | 23.34763 | 43.33877 | 36082 ft | 469 kts | 280° |
| 2026-05-08 08:59 | 23.36441 | 43.28261 | 36082 ft | 469 kts | 280° |
| 2026-05-08 09:00 | 23.38788 | 43.20407 | 36082 ft | 469 kts | 280° |
| 2026-05-08 09:00 | 23.40468 | 43.14783 | 36081 ft | 469 kts | 280° |
| 2026-05-08 09:01 | 23.42481 | 43.08023 | 36082 ft | 469 kts | 280° |
| 2026-05-08 09:01 | 23.44488 | 43.01246 | 36081 ft | 470 kts | 280° |
| 2026-05-08 09:02 | 23.46490 | 42.94467 | 36082 ft | 470 kts | 280° |
| 2026-05-08 09:02 | 23.48492 | 42.87692 | 36083 ft | 469 kts | 280° |
| 2026-05-08 09:03 | 23.50486 | 42.80932 | 36082 ft | 468 kts | 280° |
| 2026-05-08 09:03 | 23.52462 | 42.74217 | 36083 ft | 468 kts | 280° |
| 2026-05-08 09:04 | 23.54449 | 42.67472 | 36081 ft | 467 kts | 279° |
| 2026-05-08 09:04 | 23.56432 | 42.60736 | 36082 ft | 467 kts | 279° |
| 2026-05-08 09:05 | 23.58411 | 42.53994 | 36092 ft | 467 kts | 279° |
| 2026-05-08 09:05 | 23.60388 | 42.47251 | 36091 ft | 467 kts | 279° |
| 2026-05-08 09:06 | 23.62365 | 42.40498 | 36091 ft | 467 kts | 279° |
| 2026-05-08 09:06 | 23.64324 | 42.33796 | 36082 ft | 466 kts | 279° |
| 2026-05-08 09:07 | 23.66289 | 42.27059 | 36082 ft | 466 kts | 279° |
| 2026-05-08 09:07 | 23.68249 | 42.20309 | 36081 ft | 466 kts | 279° |
| 2026-05-08 09:08 | 23.70198 | 42.13575 | 36082 ft | 464 kts | 278° |
| 2026-05-08 09:08 | 23.72139 | 42.06854 | 36083 ft | 463 kts | 278° |
| 2026-05-08 09:09 | 23.74069 | 42.00159 | 36070 ft | 462 kts | 278° |
| 2026-05-08 09:09 | 23.75988 | 41.93506 | 36075 ft | 462 kts | 278° |
| 2026-05-08 09:10 | 23.77922 | 41.86809 | 36072 ft | 462 kts | 278° |
| 2026-05-08 09:10 | 23.79851 | 41.80118 | 36073 ft | 462 kts | 278° |
| 2026-05-08 09:11 | 23.81783 | 41.73418 | 36072 ft | 462 kts | 278° |
| 2026-05-08 09:11 | 23.83709 | 41.66711 | 36068 ft | 462 kts | 278° |
| 2026-05-08 09:12 | 23.85623 | 41.60011 | 36060 ft | 462 kts | 278° |
| 2026-05-08 09:12 | 23.87538 | 41.53305 | 36071 ft | 461 kts | 278° |
| 2026-05-08 09:13 | 23.89436 | 41.46615 | 36072 ft | 461 kts | 278° |
| 2026-05-08 09:13 | 23.91321 | 41.39965 | 36071 ft | 461 kts | 278° |
| 2026-05-08 09:14 | 23.93220 | 41.33268 | 36068 ft | 461 kts | 278° |
| 2026-05-08 09:14 | 23.95124 | 41.26563 | 36064 ft | 462 kts | 278° |
| 2026-05-08 09:15 | 23.97022 | 41.19852 | 36069 ft | 461 kts | 278° |
| 2026-05-08 09:15 | 23.98917 | 41.13141 | 36054 ft | 461 kts | 278° |
| 2026-05-08 09:16 | 24.00804 | 41.06444 | 36051 ft | 460 kts | 278° |
| 2026-05-08 09:16 | 24.02688 | 40.99765 | 36055 ft | 459 kts | 278° |
| 2026-05-08 09:17 | 24.04553 | 40.93133 | 36049 ft | 459 kts | 278° |
| 2026-05-08 09:17 | 24.06426 | 40.86461 | 36039 ft | 457 kts | 278° |